Time;durP1;ratioP1;P1;durP2;ratioP2;P2;SDS_P1;SDS_P2;PMS_P1;PMS_P2;Temp;Humidity;BMP_temperature;BMP_pressure;BME280_temperature;BME280_humidity;BME280_pressure;Samples;Min_cycle;Max_cycle;Signal;HPM_P1;HPM_P2
2023/05/12 00:02:21;;;;;;;1.80;1.70;;;;;;;11.84;69.49;100212.28;5130603;27;19995;-81
2023/05/12 00:04:46;;;;;;;;;;;;;;;12.02;70.16;100239.41;5129354;28;20096;-85
2023/05/12 00:07:12;;;;;;;;;;;;;;;12.00;69.07;100232.38;5123837;27;19911;-81
2023/05/12 00:09:37;;;;;;;3.03;2.00;;;;;;;11.75;69.49;100192.09;5109880;28;19916;-81
2023/05/12 00:12:03;;;;;;;;;;;;;;;11.92;70.02;100231.59;5110742;28;20270;-81
2023/05/12 00:14:28;;;;;;;;;;;;;;;11.89;69.86;100238.66;5110486;28;19958;-81
2023/05/12 00:16:53;;;;;;;;;;;;;;;11.83;70.35;100232.56;5110655;28;19946;-81
2023/05/12 00:19:19;;;;;;;7.20;1.23;;;;;;;11.63;70.38;100192.25;5109731;28;19912;-82
2023/05/12 00:21:46;;;;;;;3.78;2.10;;;;;;;11.89;70.05;100233.38;5110502;28;20469;-81
2023/05/12 00:24:13;;;;;;;3.45;1.20;;;;;;;11.89;70.36;100242.16;5110446;28;20055;-81
2023/05/12 00:26:39;;;;;;;4.35;1.95;;;;;;;11.74;70.29;100214.16;5110461;28;20039;-81
2023/05/12 00:29:04;;;;;;;;;;;;;;;11.84;70.49;100233.41;5110348;28;20031;-82
2023/05/12 00:31:30;;;;;;;2.33;2.08;;;;;;;11.81;70.65;100222.88;5110482;28;19916;-82
2023/05/12 00:33:55;;;;;;;;;;;;;;;11.96;70.43;100233.31;5110333;28;20103;-81
2023/05/12 00:36:21;;;;;;;2.03;1.30;;;;;;;11.68;70.61;100221.25;5109861;28;19983;-81
2023/05/12 00:38:46;;;;;;;;;;;;;;;11.90;70.62;100235.13;5110835;28;20038;-81
2023/05/12 00:41:11;;;;;;;3.38;2.58;;;;;;;11.65;69.82;100198.41;5109744;28;19922;-81
2023/05/12 00:43:37;;;;;;;3.60;1.33;;;;;;;11.94;70.36;100247.44;5110203;28;20145;-81
2023/05/12 00:46:03;;;;;;;;;;;;;;;11.79;70.45;100243.19;5111010;28;20036;-82
2023/05/12 00:48:29;;;;;;;9.38;1.83;;;;;;;11.79;70.26;100232.59;5113833;28;19911;-81
2023/05/12 00:50:55;;;;;;;;;;;;;;;11.87;70.26;100243.09;5114187;28;20035;-82
2023/05/12 00:53:21;;;;;;;2.17;1.92;;;;;;;11.95;69.95;100235.97;5113727;28;19918;-82
2023/05/12 00:55:46;;;;;;;;;;;;;;;11.77;70.61;100243.19;5114387;28;20084;-81
2023/05/12 00:58:12;;;;;;;2.63;1.52;;;;;;;11.51;70.40;100189.75;5113999;28;19972;-81
2023/05/12 01:00:37;;;;;;;;;;;;;;;11.79;70.48;100245.81;5113847;28;20023;-81
2023/05/12 01:03:03;;;;;;;3.42;1.70;;;;;;;11.61;70.95;100217.81;5113062;28;20006;-81
2023/05/12 01:05:31;;;;;;;;;;;;;;;11.86;70.56;100252.78;5114162;28;20030;-82
2023/05/12 01:07:59;;;;;;;1.40;1.30;;;;;;;11.84;70.79;100241.34;5113367;28;19923;-81
2023/05/12 01:10:25;;;;;;;4.82;1.73;;;;;;;11.64;70.80;100210.72;5113436;28;20059;-81
2023/05/12 01:12:50;;;;;;;;;;;;;;;11.91;70.80;100253.63;5113630;28;20032;-81
2023/05/12 01:15:17;;;;;;;4.75;2.33;;;;;;;11.79;70.45;100229.97;5113324;28;19969;-81
2023/05/12 01:17:47;;;;;;;3.13;1.88;;;;;;;11.71;70.57;100221.22;5112805;28;20038;-82
2023/05/12 01:20:15;;;;;;;1.75;1.58;;;;;;;11.65;70.41;100212.50;5113420;28;20139;-81
2023/05/12 01:22:41;;;;;;;5.93;3.00;;;;;;;11.78;70.74;100231.72;5113167;28;20576;-81
2023/05/12 01:25:10;;;;;;;3.10;2.47;;;;;;;11.87;70.38;100236.03;5113808;27;20027;-82
2023/05/12 01:27:38;;;;;;;3.92;2.20;;;;;;;11.70;71.07;100222.13;5133668;27;20038;-81
2023/05/12 01:30:05;;;;;;;3.10;2.33;;;;;;;11.81;71.22;100228.16;5133618;27;20035;-82
2023/05/12 01:32:31;;;;;;;4.80;3.83;;;;;;;11.86;70.48;100230.75;5133547;27;20047;-82
2023/05/12 01:34:56;;;;;;;;;;;;;;;11.98;70.64;100234.16;5134030;27;20027;-81
2023/05/12 01:37:25;;;;;;;1.42;1.23;;;;;;;11.93;70.09;100232.47;5133562;27;20304;-85
2023/05/12 01:39:51;;;;;;;3.78;2.15;;;;;;;11.55;70.09;100196.75;5133332;27;20126;-82
2023/05/12 01:42:16;;;;;;;1.83;1.38;;;;;;;11.60;70.40;100198.47;5133576;27;20019;-81
2023/05/12 01:44:42;;;;;;;;;;;;;;;11.78;70.49;100238.78;5133394;27;20038;-81
2023/05/12 01:47:10;;;;;;;;;;;;;;;11.67;70.87;100238.03;5133728;27;19908;-83
2023/05/12 01:49:36;;;;;;;1.38;1.27;;;;;;;11.62;70.13;100199.31;5133366;27;20288;-82
2023/05/12 01:52:01;;;;;;;3.42;2.30;;;;;;;11.72;70.04;100212.41;5133397;27;20030;-82
2023/05/12 01:54:27;;;;;;;;;;;;;;;11.80;69.95;100235.25;5133351;27;20027;-82
2023/05/12 01:56:52;;;;;;;1.33;1.23;;;;;;;11.76;70.21;100233.50;5133243;27;20306;-82
2023/05/12 01:59:17;;;;;;;;;;;;;;;11.85;70.08;100244.84;5133530;27;20034;-82
2023/05/12 02:01:43;;;;;;;;;;;;;;;11.78;69.82;100238.78;5133085;27;19911;-81
2023/05/12 02:04:08;;;;;;;3.42;2.20;;;;;;;11.65;70.27;100235.41;5133196;27;19911;-81
2023/05/12 02:06:33;;;;;;;;;;;;;;;11.51;70.47;100213.53;5131480;27;20042;-81
2023/05/12 02:08:59;;;;;;;4.03;2.85;;;;;;;11.61;71.08;100241.59;5132822;27;19912;-81
2023/05/12 02:11:25;;;;;;;;;;;;;;;11.72;70.91;100239.72;5133007;27;20493;-81
2023/05/12 02:13:51;;;;;;;;;;;;;;;11.74;71.41;100237.06;5133308;27;20353;-82
2023/05/12 02:16:16;;;;;;;3.47;2.08;;;;;;;11.77;70.80;100202.66;5132726;27;19915;-81
2023/05/12 02:18:42;;;;;;;;;;;;;;;11.87;70.92;100237.81;5133352;27;20041;-81
2023/05/12 02:21:07;;;;;;;1.33;1.23;;;;;;;11.69;71.03;100199.25;5132381;27;19921;-82
2023/05/12 02:23:32;;;;;;;;;;;;;;;11.77;71.20;100232.63;5132936;27;20019;-82
2023/05/12 02:25:58;;;;;;;;;;;;;;;11.80;71.54;100234.34;5133043;27;19922;-82
2023/05/12 02:28:23;;;;;;;2.20;1.35;;;;;;;11.52;71.41;100176.50;5132165;27;19918;-82
2023/05/12 02:30:49;;;;;;;;;;;;;;;11.82;71.85;100225.50;5132646;27;20034;-82
2023/05/12 02:33:19;;;;;;;3.10;2.10;;;;;;;11.85;71.82;100236.94;5132243;27;19915;-82
2023/05/12 02:35:45;;;;;;;9.70;1.98;;;;;;;11.53;71.85;100191.47;5132268;27;20420;-81
2023/05/12 02:38:11;;;;;;;4.45;2.97;;;;;;;11.79;71.99;100222.91;5132072;27;20499;-82
2023/05/12 02:40:37;;;;;;;4.53;2.25;;;;;;;11.78;71.98;100225.56;5132140;27;20038;-82
2023/05/12 02:43:02;;;;;;;;;;;;;;;11.76;71.36;100225.59;5132092;27;20031;-81
2023/05/12 02:45:28;;;;;;;1.77;1.55;;;;;;;11.85;71.19;100218.44;5132458;27;20059;-82
2023/05/12 02:47:53;;;;;;;;;;;;;;;11.93;70.98;100227.19;5132196;27;20110;-83
2023/05/12 02:50:20;;;;;;;;;;;;;;;11.96;70.86;100235.94;5132596;27;19911;-81
2023/05/12 02:52:49;;;;;;;8.68;2.90;;;;;;;11.77;70.15;100198.25;5132393;27;19931;-82
2023/05/12 02:55:15;;;;;;;3.95;2.65;;;;;;;11.81;70.62;100199.09;5132281;27;20502;-82
2023/05/12 02:57:42;;;;;;;3.55;2.65;;;;;;;11.76;70.52;100188.56;5132032;27;20084;-82
2023/05/12 03:00:08;;;;;;;2.83;2.08;;;;;;;11.93;71.09;100232.47;5131611;27;20034;-83
2023/05/12 03:02:38;;;;;;;1.65;1.30;;;;;;;11.84;71.44;100214.91;5131747;27;20121;-85
2023/05/12 03:05:04;;;;;;;1.85;1.70;;;;;;;11.53;70.87;100164.19;5131177;27;20030;-84
2023/05/12 03:07:30;;;;;;;5.32;3.03;;;;;;;11.83;71.40;100223.72;5131188;27;20027;-84
2023/05/12 03:09:56;;;;;;;;;;;;;;;11.96;71.39;100254.47;5130670;27;20115;-84
2023/05/12 03:12:22;;;;;;;7.60;1.80;;;;;;;11.67;71.76;100198.38;5131504;27;19918;-85
2023/05/12 03:14:47;;;;;;;;;;;;;;;11.85;71.97;100248.41;5131763;27;20019;-85
2023/05/12 03:17:13;;;;;;;2.30;1.77;;;;;;;11.71;72.01;100237.97;5131137;27;19944;-85
2023/05/12 03:19:38;;;;;;;;;;;;;;;11.86;72.51;100255.41;5131887;27;20022;-84
2023/05/12 03:22:06;;;;;;;3.00;1.67;;;;;;;11.60;72.26;100214.31;5129699;27;20300;-85
2023/05/12 03:24:32;;;;;;;3.72;1.63;;;;;;;11.71;72.42;100231.78;5129479;27;20431;-84
2023/05/12 03:26:57;;;;;;;4.13;2.25;;;;;;;11.86;72.16;100252.78;5130578;27;20039;-84
2023/05/12 03:29:23;;;;;;;;;;;;;;;12.04;72.65;100264.94;5129727;27;20122;-83
2023/05/12 03:31:49;;;;;;;2.80;1.40;;;;;;;11.90;72.20;100227.19;5130755;27;19911;-84
2023/05/12 03:34:14;;;;;;;;;;;;;;;12.04;72.74;100264.94;5131447;27;20114;-86
2023/05/12 03:36:39;;;;;;;2.25;1.38;;;;;;;11.97;72.03;100223.59;5131052;27;19915;-84
2023/05/12 03:39:07;;;;;;;2.78;1.70;;;;;;;11.82;71.88;100196.44;5130656;27;20101;-83
2023/05/12 03:41:33;;;;;;;1.92;1.77;;;;;;;12.20;71.51;100244.47;5129997;27;20484;-83
2023/05/12 03:43:58;;;;;;;;;;;;;;;12.26;71.40;100265.53;5130849;27;20027;-82
2023/05/12 03:46:24;;;;;;;2.15;1.70;;;;;;;12.23;70.93;100238.28;5130287;27;19912;-85
2023/05/12 03:48:49;;;;;;;;;;;;;;;12.44;70.63;100275.03;5130281;27;20118;-83
2023/05/12 03:51:15;;;;;;;10.32;2.03;;;;;;;12.26;70.56;100272.63;5130072;28;19911;-85
2023/05/12 03:53:44;;;;;;;;;;;;;;;12.35;70.89;100291.00;5130964;27;20499;-85
2023/05/12 03:56:10;;;;;;;9.02;2.47;;;;;;;12.23;70.87;100260.28;5130390;27;19911;-85
2023/05/12 03:58:35;;;;;;;;;;;;;;;12.39;70.09;100292.75;5130918;27;20035;-85
2023/05/12 04:01:02;;;;;;;3.67;2.83;;;;;;;12.12;70.78;100254.28;5130763;27;19964;-85
2023/05/12 04:03:28;;;;;;;9.20;2.55;;;;;;;12.46;69.80;100275.88;5118507;27;20126;-90
2023/05/12 04:05:58;;;;;;;6.85;1.95;;;;;;;12.39;70.62;100270.69;5128596;27;20121;-84
2023/05/12 04:08:24;;;;;;;4.50;3.05;;;;;;;12.33;70.38;100266.38;5128382;27;20063;-84
2023/05/12 04:10:49;;;;;;;7.75;2.70;;;;;;;12.35;70.03;100276.00;5128489;27;20416;-84
2023/05/12 04:13:15;;;;;;;;;;;;;;;12.42;69.59;100298.00;5130290;27;20019;-85
2023/05/12 04:15:41;;;;;;;2.33;2.10;;;;;;;12.28;69.75;100268.16;5122202;28;19922;-84
2023/05/12 04:18:06;;;;;;;;;;;;;;;12.67;69.39;100300.31;5118059;28;20028;-85
2023/05/12 04:20:31;;;;;;;;;;;;;;;12.53;69.13;100300.50;5122952;27;19923;-85
2023/05/12 04:22:57;;;;;;;;;;;;;;;12.67;68.80;100306.47;5134125;27;19915;-87
2023/05/12 04:25:22;;;;;;;2.87;2.47;;;;;;;12.45;68.32;100241.50;5133116;27;19942;-83
2023/05/12 04:27:48;;;;;;;3.08;2.33;;;;;;;12.72;68.58;100264.06;5120229;27;20898;-84
2023/05/12 04:30:13;;;;;;;;;;;;;;;12.87;68.36;100289.44;5127757;27;20043;-84
2023/05/12 04:32:38;;;;;;;;;;;;;;;12.81;67.41;100295.69;5129172;27;20381;-84
2023/05/12 04:35:04;;;;;;;;;;;;;;;12.49;68.08;100293.47;5131295;27;20006;-82
2023/05/12 04:37:29;;;;;;;4.60;2.15;;;;;;;12.41;66.96;100255.69;5127397;27;19974;-84
2023/05/12 04:39:55;;;;;;;2.90;2.25;;;;;;;12.44;67.51;100285.59;5133632;27;20522;-85
2023/05/12 04:42:20;;;;;;;;;;;;;;;12.29;68.45;100286.66;5134874;27;20019;-83
2023/05/12 04:44:45;;;;;;;;;;;;;;;12.53;68.42;100282.84;5134331;27;19971;-84
2023/05/12 04:47:11;;;;;;;1.77;1.50;;;;;;;12.32;67.96;100249.59;5133223;27;19958;-83
2023/05/12 04:49:37;;;;;;;2.45;1.83;;;;;;;12.21;68.59;100222.41;5127069;27;20027;-84
2023/05/12 04:52:04;;;;;;;;;;;;;;;12.55;68.86;100277.53;5134364;27;20042;-84
2023/05/12 04:54:32;;;;;;;4.28;2.30;;;;;;;12.22;68.13;100208.31;5127193;27;19918;-84
2023/05/12 04:56:58;;;;;;;4.38;2.80;;;;;;;12.43;68.77;100238.88;5134181;27;20097;-89
2023/05/12 04:59:23;;;;;;;3.65;2.63;;;;;;;12.45;68.83;100208.00;5116971;27;20165;-85
2023/05/12 05:01:49;;;;;;;;;;;;;;;12.84;67.69;100278.88;5115640;27;20523;-85
2023/05/12 05:04:14;;;;;;;2.10;1.50;;;;;;;12.69;67.85;100253.50;5157090;27;20018;-84
2023/05/12 05:06:40;;;;;;;3.28;2.80;;;;;;;12.89;67.67;100239.97;5116836;27;20040;-84
2023/05/12 05:09:06;;;;;;;;;;;;;;;12.85;67.24;100286.81;5117645;27;20154;-85
2023/05/12 05:11:31;;;;;;;3.65;2.83;;;;;;;12.85;67.53;100281.50;5117377;27;20031;-89
2023/05/12 05:13:56;;;;;;;2.00;1.35;;;;;;;12.62;67.28;100236.84;5117045;27;20053;-85
2023/05/12 05:16:22;;;;;;;;;;;;;;;12.79;66.35;100292.19;5122397;27;20031;-86
2023/05/12 05:18:47;;;;;;;2.45;1.95;;;;;;;12.75;66.57;100260.50;5117158;27;19992;-84
2023/05/12 05:21:13;;;;;;;;;;;;;;;13.21;65.74;100294.19;5120452;27;20063;-85
2023/05/12 05:23:39;;;;;;;3.63;2.70;;;;;;;13.19;66.28;100311.88;5117907;27;19972;-89
2023/05/12 05:26:05;;;;;;;3.40;2.13;;;;;;;12.80;66.07;100224.22;5117085;27;20031;-86
2023/05/12 05:28:31;;;;;;;2.78;1.90;;;;;;;13.22;66.81;100287.97;5112551;27;20073;-88
2023/05/12 05:30:56;;;;;;;;;;;;;;;13.41;66.75;100307.16;5112336;27;20596;-87
2023/05/12 05:33:22;;;;;;;4.15;2.22;;;;;;;13.21;66.02;100276.53;5116269;27;20399;-86
2023/05/12 05:35:47;;;;;;;;;;;;;;;13.40;65.74;100308.91;5115213;27;20027;-86
2023/05/12 05:38:13;;;;;;;1.92;1.63;;;;;;;13.12;65.61;100265.22;5121954;27;20373;-87
2023/05/12 05:40:38;;;;;;;;;;;;;;;13.57;65.05;100311.25;5126770;27;20054;-86
2023/05/12 05:43:05;;;;;;;2.35;1.70;;;;;;;13.33;64.53;100250.72;5126907;27;19937;-87
2023/05/12 05:45:31;;;;;;;1.10;0.98;;;;;;;13.64;65.75;100301.44;5130697;27;20026;-86
2023/05/12 05:47:56;;;;;;;5.82;1.92;;;;;;;13.66;63.88;100265.19;5126898;27;20111;-86
2023/05/12 05:50:22;;;;;;;3.30;1.88;;;;;;;13.71;64.19;100263.31;5123121;27;20121;-86
2023/05/12 05:52:47;;;;;;;;;;;;;;;13.81;64.26;100301.16;5121575;27;20542;-86
2023/05/12 05:55:13;;;;;;;2.95;1.88;;;;;;;13.79;63.28;100274.66;5125913;27;20403;-87
2023/05/12 05:57:38;;;;;;;;;;;;;;;14.14;62.92;100304.03;5128665;27;20087;-88
2023/05/12 06:00:06;;;;;;;1.23;1.00;;;;;;;14.26;61.69;100271.94;5121308;27;19962;-87
2023/05/12 06:02:32;;;;;;;2.33;1.63;;;;;;;14.18;61.21;100244.72;5127378;27;20030;-86
2023/05/12 06:04:59;;;;;;;3.22;2.13;;;;;;;14.47;61.26;100259.13;5125755;27;20043;-86
2023/05/12 06:07:25;;;;;;;2.70;1.05;;;;;;;14.90;60.03;100274.09;5128903;27;20484;-87
2023/05/12 06:09:53;;;;;;;2.20;1.92;;;;;;;14.60;59.71;100233.19;5129457;27;20052;-86
2023/05/12 06:12:18;;;;;;;2.17;1.95;;;;;;;15.09;58.97;100240.00;5129999;27;20042;-86
2023/05/12 06:14:44;;;;;;;2.50;1.77;;;;;;;15.22;58.21;100253.84;5126591;27;20399;-86
2023/05/12 06:17:09;;;;;;;;;;;;;;;15.25;58.90;100312.25;5126807;27;20023;-86
2023/05/12 06:19:35;;;;;;;;;;;;;;;15.63;57.08;100313.06;5126126;27;19919;-87
2023/05/12 06:22:00;;;;;;;;;;;;;;;15.75;57.05;100311.84;5126941;27;19918;-88
2023/05/12 06:24:25;;;;;;;;;;;;;;;15.96;55.86;100320.19;5121824;27;19915;-87
2023/05/12 06:26:51;;;;;;;;;;;;;;;15.73;56.57;100317.22;5133861;27;19943;-88
2023/05/12 06:29:16;;;;;;;;;;;;;;;15.95;55.94;100324.66;5129613;27;19915;-87
2023/05/12 06:31:41;;;;;;;;;;;;;;;16.27;54.45;100317.56;5119929;27;19923;-87
2023/05/12 06:34:07;;;;;;;;;;;;;;;16.40;54.41;100320.75;5131545;27;19971;-86
2023/05/12 06:36:32;;;;;;;;;;;;;;;16.39;54.48;100316.31;5125210;27;19969;-85
2023/05/12 06:38:58;;;;;;;;;;;;;;;16.27;55.10;100325.56;5124256;27;19912;-88
2023/05/12 06:41:24;;;;;;;;;;;;;;;16.24;55.34;100323.84;5120271;27;19916;-86
2023/05/12 06:43:49;;;;;;;;;;;;;;;16.29;53.81;100321.06;5124083;27;19922;-86
2023/05/12 06:46:18;;;;;;;;;;;;;;;16.42;54.36;100324.22;5131134;27;19915;-86
2023/05/12 06:48:44;;;;;;;;;;;;;;;16.77;53.31;100320.50;5130278;27;19916;-87
2023/05/12 06:51:09;;;;;;;;;;;;;;;16.58;54.51;100312.22;5116385;27;19916;-86
2023/05/12 06:53:37;;;;;;;;;;;;;;;16.50;54.78;100316.91;5156197;27;19915;-85
2023/05/12 06:56:03;;;;;;;;;;;;;;;16.50;53.95;100314.25;5128022;27;19915;-86
2023/05/12 06:58:28;;;;;;;;;;;;;;;17.18;53.11;100318.38;5130642;27;20392;-87
2023/05/12 07:00:54;;;;;;;;;;;;;;;17.81;50.54;100317.16;5115435;27;19963;-86
2023/05/12 07:03:19;;;;;;;;;;;;;;;17.64;51.52;100310.66;5117394;27;19923;-86
2023/05/12 07:05:45;;;;;;;;;;;;;;;17.45;52.51;100312.19;5125848;27;19911;-86
2023/05/12 07:08:10;;;;;;;;;;;;;;;17.83;50.66;100305.53;5125166;27;19922;-86
2023/05/12 07:10:36;;;;;;;;;;;;;;;17.39;51.84;100309.72;5128006;27;19923;-87
2023/05/12 07:13:02;;;;;;;;;;;;;;;16.96;52.17;100302.22;5125774;27;20278;-85
2023/05/12 07:15:27;;;;;;;;;;;;;;;17.25;51.04;100300.38;5125961;27;19919;-88
2023/05/12 07:17:54;;;;;;;;;;;;;;;17.43;50.63;100298.91;5126790;27;19976;-85
2023/05/12 07:20:21;;;;;;;;;;;;;;;18.27;48.88;100299.53;5121677;27;20300;-85
2023/05/12 07:22:46;;;;;;;;;;;;;;;17.98;48.75;100301.50;5121636;27;19919;-87
2023/05/12 07:25:12;;;;;;;;;;;;;;;17.84;48.90;100301.06;5117740;27;20033;-85
2023/05/12 07:27:37;;;;;;;;;;;;;;;17.22;50.48;100300.47;5120386;27;20396;-85
2023/05/12 07:30:04;;;;;;;;;;;;;;;17.29;50.30;100307.38;5127406;27;19911;-84
2023/05/12 07:32:29;;;;;;;;;;;;;;;16.86;49.67;100305.19;5115008;27;19923;-87
2023/05/12 07:34:55;;;;;;;;;;;;;;;16.79;50.64;100300.03;5117647;27;19915;-85
2023/05/12 07:37:20;;;;;;;;;;;;;;;17.05;49.56;100306.34;5129912;27;19938;-86
2023/05/12 07:39:45;;;;;;;;;;;;;;;16.75;49.66;100305.50;5131066;27;20403;-84
2023/05/12 07:42:11;;;;;;;;;;;;;;;16.89;49.85;100310.44;5126238;27;20356;-84
2023/05/12 07:44:36;;;;;;;;;;;;;;;16.80;48.57;100309.75;5122642;27;19916;-85
2023/05/12 07:47:01;;;;;;;;;;;;;;;16.75;49.12;100310.84;5117208;27;19923;-84
2023/05/12 07:49:27;;;;;;;;;;;;;;;16.92;49.17;100303.22;5121081;27;20425;-85
2023/05/12 07:51:52;;;;;;;;;;;;;;;16.89;49.79;100303.31;5117459;28;19926;-85
2023/05/12 07:54:17;;;;;;;;;;;;;;;16.53;50.63;100300.84;5118071;28;20454;-83
2023/05/12 07:56:43;;;;;;;;;;;;;;;16.18;52.76;100308.06;5115562;28;20398;-85
2023/05/12 07:59:09;;;;;;;;;;;;;;;16.38;51.68;100296.84;5108699;28;19919;-86
2023/05/12 08:01:34;;;;;;;;;;;;;;;16.72;51.45;100303.81;5124112;28;20229;-85
2023/05/12 08:04:00;;;;;;;;;;;;;;;17.21;48.78;100298.75;5121420;28;19915;-84
2023/05/12 08:06:25;;;;;;;;;;;;;;;17.51;50.01;100299.50;5122205;28;19926;-85
2023/05/12 08:08:50;;;;;;;;;;;;;;;18.09;47.36;100301.09;5116327;28;20435;-85
2023/05/12 08:11:16;;;;;;;;;;;;;;;18.24;47.63;100296.97;5117307;27;20349;-85
2023/05/12 08:13:41;;;;;;;;;;;;;;;18.74;45.20;100296.84;5123587;27;19915;-86
2023/05/12 08:16:07;;;;;;;;;;;;;;;19.28;44.05;100289.38;5114822;28;19965;-85
2023/05/12 08:18:32;;;;;;;;;;;;;;;19.55;42.62;100294.47;5114099;28;20021;-86
2023/05/12 08:20:57;;;;;;;;;;;;;;;19.61;42.98;100293.34;5112564;27;20014;-85
2023/05/12 08:23:23;;;;;;;;;;;;;;;19.52;41.25;100285.72;5122182;28;20296;-85
2023/05/12 08:25:48;;;;;;;;;;;;;;;18.94;41.72;100282.72;5113040;28;19918;-86
2023/05/12 08:28:13;;;;;;;;;;;;;;;19.29;43.07;100291.13;5130459;27;19915;-85
2023/05/12 08:30:39;;;;;;;;;;;;;;;19.66;42.73;100291.34;5123970;28;19922;-85
2023/05/12 08:33:04;;;;;;;;;;;;;;;19.93;41.51;100283.94;5121384;27;19923;-86
2023/05/12 08:35:30;;;;;;;;;;;;;;;19.76;40.53;100284.66;5125738;28;19911;-85
2023/05/12 08:37:56;;;;;;;;;;;;;;;19.42;40.24;100288.78;5130802;27;19983;-86
2023/05/12 08:40:22;;;;;;;;;;;;;;;19.23;43.42;100286.03;5124186;27;19980;-86
2023/05/12 08:42:54;;;;;;;;;;;;;;;19.23;42.03;100282.47;5123806;27;19911;-86
2023/05/12 08:45:21;;;;;;;;;;;;;;;18.84;43.20;100283.13;5123278;27;19923;-85
2023/05/12 08:47:48;;;;;;;;;;;;;;;18.87;42.82;100286.56;5118325;28;19912;-85
2023/05/12 08:50:14;;;;;;;;;;;;;;;19.60;42.99;100287.13;5119324;27;19916;-86
2023/05/12 08:52:39;;;;;;;;;;;;;;;19.25;41.91;100285.97;5118621;27;19922;-87
2023/05/12 08:55:05;;;;;;;;;;;;;;;19.23;39.50;100286.03;5122829;27;19971;-85
2023/05/12 08:57:31;;;;;;;;;;;;;;;19.64;42.68;100277.16;5112894;28;19915;-84
2023/05/12 08:59:58;;;;;;;;;;;;;;;19.60;40.27;100281.78;5112536;28;19922;-83
2023/05/12 09:02:23;;;;;;;;;;;;;;;19.95;40.86;100276.72;5120158;28;20422;-83
2023/05/12 09:04:49;;;;;;;;;;;;;;;19.74;39.54;100277.63;5114340;27;19919;-82
2023/05/12 09:07:16;;;;;;;;;;;;;;;19.93;38.07;100280.41;5109887;27;20396;-81
2023/05/12 09:09:42;;;;;;;;;;;;;;;20.02;40.34;100278.19;5123161;27;19919;-83
2023/05/12 09:12:10;;;;;;;;;;;;;;;20.33;36.06;100274.09;5118962;27;20025;-83
2023/05/12 09:14:37;;;;;;;;;;;;;;;19.47;37.28;100277.88;5121008;27;19923;-83
2023/05/12 09:17:03;;;;;;;;;;;;;;;19.44;37.69;100273.53;5113510;27;19912;-85
2023/05/12 09:19:29;;;;;;;;;;;;;;;19.32;36.57;100279.41;5111693;28;20008;-84
2023/05/12 09:21:54;;;;;;;;;;;;;;;19.58;37.74;100278.28;5118052;27;19916;-84
2023/05/12 09:24:21;;;;;;;;;;;;;;;19.71;36.35;100272.41;5145707;27;19912;-85
2023/05/12 09:26:46;;;;;;;;;;;;;;;20.02;35.68;100270.16;5131245;27;19911;-85
2023/05/12 09:29:11;;;;;;;;;;;;;;;20.55;38.28;100271.28;5132030;27;20396;-87
2023/05/12 09:31:37;;;;;;;;;;;;;;;20.68;35.96;100263.59;5132836;27;19979;-84
2023/05/12 09:34:06;;;;;;;;;;;;;;;20.61;36.64;100259.41;5134247;27;19915;-88
2023/05/12 09:36:32;;;;;;;;;;;;;;;20.40;35.23;100266.63;5133699;27;19911;-85
2023/05/12 09:39:03;;;;;;;;;;;;;;;19.73;37.69;100266.06;5134207;27;19919;-85
2023/05/12 09:41:29;;;;;;;;;;;;;;;19.53;38.54;100271.41;5132227;27;20324;-85
2023/05/12 09:43:55;;;;;;;;;;;;;;;19.68;37.85;100268.06;5133125;27;19915;-84
2023/05/12 09:46:20;;;;;;;;;;;;;;;20.70;34.00;100253.66;5132979;27;19912;-84
2023/05/12 09:48:47;;;;;;;;;;;;;;;20.70;38.52;100248.28;5133478;27;19962;-85
2023/05/12 09:51:15;;;;;;;;;;;;;;;20.83;35.98;100256.59;5133395;27;19915;-85
2023/05/12 09:53:43;;;;;;;;;;;;;;;20.38;36.87;100253.31;5132962;27;20384;-85
2023/05/12 09:56:08;;;;;;;;;;;;;;;19.38;38.48;100256.88;5120177;27;19922;-85
2023/05/12 09:58:34;;;;;;;;;;;;;;;19.18;38.38;100257.72;5128061;27;20014;-89
2023/05/12 10:00:59;;;;;;;;;;;;;;;19.27;39.62;100260.00;5124486;27;20496;-84
2023/05/12 10:03:27;;;;;;;;;;;;;;;18.91;38.70;100257.94;5133252;27;20308;-85
2023/05/12 10:05:56;;;;;;;;;;;;;;;18.41;38.99;100250.94;5133532;27;19922;-85
2023/05/12 10:08:45;;;;;;;;;;;;;;;18.85;38.49;100248.34;5133292;27;19998;-85
2023/05/12 10:11:11;;;;;;;;;;;;;;;19.48;37.34;100244.88;5029188;28;20091;-85
2023/05/12 10:13:37;;;;;;;;;;;;;;;20.01;35.98;100246.13;5029768;28;19970;-85
2023/05/12 10:16:02;;;;;;;;;;;;;;;19.56;38.76;100245.38;5029629;28;19921;-86
2023/05/12 10:18:28;;;;;;;;;;;;;;;18.74;38.60;100248.75;5029804;28;19913;-83
2023/05/12 10:20:55;;;;;;;;;;;;;;;19.09;40.19;100246.47;5029655;28;19967;-84
2023/05/12 10:23:21;;;;;;;;;;;;;;;19.25;38.46;100252.06;5032917;28;19917;-83
2023/05/12 10:25:46;;;;;;;;;;;;;;;18.93;38.14;100248.03;5049246;28;19928;-84
2023/05/12 10:28:12;;;;;;;;;;;;;;;18.93;39.26;100246.22;5031463;28;19917;-86
2023/05/12 10:30:38;;;;;;;;;;;;;;;18.58;40.14;100252.94;5029394;28;19940;-85
2023/05/12 10:33:07;;;;;;;;;;;;;;;18.92;39.92;100235.59;5013594;28;20015;-84
2023/05/12 10:35:33;;;;;;;;;;;;;;;18.91;39.06;100233.88;5036120;28;19972;-86
2023/05/12 10:38:09;;;;;;;;;;;;;;;18.54;39.97;100238.00;5040156;28;19913;-86
2023/05/12 10:40:34;;;;;;;;;;;;;;;18.92;39.38;100243.63;5038075;28;19909;-85
2023/05/12 10:43:00;;;;;;;;;;;;;;;18.79;38.88;100235.19;5031819;28;19917;-86
2023/05/12 10:45:25;;;;;;;;;;;;;;;19.05;40.07;100235.97;5032694;28;19913;-86
2023/05/12 10:47:51;;;;;;;;;;;;;;;19.20;38.57;100226.44;5064321;28;19998;-86
2023/05/12 10:50:26;;;;;;;;;;;;;;;19.38;37.49;100224.78;5114285;28;19946;-84
2023/05/12 10:52:52;;;;;;;;;;;;;;;19.30;36.73;100230.47;5113465;28;19968;-88
2023/05/12 10:55:29;;;;;;;;;;;;;;;19.02;37.90;100228.09;5113276;28;19928;-85
2023/05/12 10:58:02;;;;;;;;;;;;;;;19.13;38.12;100231.16;5112137;28;19916;-87
2023/05/12 11:00:28;;;;;;;;;;;;;;;18.96;37.33;100224.72;5114229;28;19926;-87
2023/05/12 11:02:53;;;;;;;;;;;;;;;18.37;38.80;100233.31;5114175;28;20400;-87
2023/05/12 11:05:19;;;;;;;;;;;;;;;18.53;38.72;100223.75;5113941;28;19918;-87
2023/05/12 11:07:48;;;;;;;;;;;;;;;18.75;38.46;100218.44;5113797;28;19908;-86
2023/05/12 11:10:14;;;;;;;;;;;;;;;18.74;38.62;100214.00;5113056;28;19920;-87
2023/05/12 11:12:41;;;;;;;;;;;;;;;19.02;37.32;100204.88;5121018;27;19918;-86
2023/05/12 11:15:07;;;;;;;;;;;;;;;19.16;37.66;100203.44;5137448;27;19946;-87
2023/05/12 11:17:32;;;;;;;;;;;;;;;18.60;37.33;100211.03;5134079;27;20298;-86
2023/05/12 11:19:59;;;;;;;;;;;;;;;18.78;38.68;100204.94;5121787;27;19915;-86
2023/05/12 11:22:24;;;;;;;;;;;;;;;19.03;36.94;100217.34;5112048;28;19907;-85
2023/05/12 11:24:51;;;;;;;;;;;;;;;18.95;39.52;100209.63;5112890;28;19972;-85
2023/05/12 11:27:17;;;;;;;;;;;;;;;18.66;37.63;100213.47;5112499;28;19939;-85
2023/05/12 11:29:45;;;;;;;;;;;;;;;19.02;38.33;100217.41;5111475;28;19935;-85
2023/05/12 11:32:11;;;;;;;;;;;;;;;19.29;37.74;100210.88;5111906;28;19911;-86
2023/05/12 11:34:37;;;;;;;;;;;;;;;19.44;39.17;100203.97;5112078;28;19964;-86
2023/05/12 11:37:03;;;;;;;;;;;;;;;19.40;37.61;100204.19;5112791;28;19927;-85
2023/05/12 11:39:32;;;;;;;;;;;;;;;19.55;38.80;100210.66;5111261;28;19919;-85
2023/05/12 11:42:04;;;;;;;;;;;;;;;19.53;37.98;100200.03;5110823;27;20332;-92
2023/05/12 11:44:30;;;;;;;;;;;;;;;19.90;37.26;100200.25;5110305;28;19916;-82
2023/05/12 11:46:58;;;;;;;;;;;;;;;20.05;35.27;100199.53;5125983;27;19919;-84
2023/05/12 11:49:24;;;;;;;;;;;;;;;19.92;37.25;100179.59;5123256;27;19919;-83
2023/05/12 11:51:50;;;;;;;;;;;;;;;19.65;37.43;100187.94;5121746;27;20346;-84
2023/05/12 11:54:15;;;;;;;;;;;;;;;19.27;37.46;100190.47;5111072;27;19911;-84
2023/05/12 11:56:46;;;;;;;;;;;;;;;19.09;39.24;100200.13;5123317;27;19911;-83
2023/05/12 11:59:11;;;;;;;;;;;;;;;19.33;37.05;100188.41;5129051;27;19915;-86
2023/05/12 12:01:43;;;;;;;;;;;;;;;19.31;40.24;100192.09;5130795;27;20002;-84
2023/05/12 12:04:08;;;;;;;;;;;;;;;19.80;37.15;100183.72;5130604;27;20402;-84
2023/05/12 12:06:41;;;;;;;;;;;;;;;19.68;37.67;100190.47;5129486;27;20007;-84